createdAt,value
2022-11-15T00:01:23.512Z,7.50
2022-11-15T00:03:54.192Z,7.50
2022-11-15T00:06:22.667Z,7.40
2022-11-15T00:08:51.094Z,7.50
2022-11-15T00:11:19.615Z,7.40
2022-11-15T00:13:48.048Z,7.50
2022-11-15T00:16:16.643Z,7.20
2022-11-15T00:18:50.308Z,7.60
2022-11-15T00:21:20.042Z,7.20
2022-11-15T00:23:48.487Z,7.10
2022-11-15T00:26:17.596Z,7.30
2022-11-15T00:28:46.095Z,7.30
2022-11-15T00:31:17.469Z,6.80
2022-11-15T00:33:47.063Z,7.30
2022-11-15T00:36:15.744Z,6.90
2022-11-15T00:38:45.404Z,6.90
2022-11-15T00:41:13.841Z,6.80
2022-11-15T00:43:45.171Z,7.00
2022-11-15T00:46:13.678Z,7.00
2022-11-15T00:48:42.067Z,6.70
2022-11-15T00:51:10.555Z,6.80
2022-11-15T00:53:39.001Z,6.70
2022-11-15T00:56:07.600Z,6.90
2022-11-15T00:58:36.019Z,6.70
2022-11-15T01:01:12.011Z,6.90
2022-11-15T01:03:42.254Z,6.70
2022-11-15T01:06:11.968Z,6.80
2022-11-15T01:08:43.862Z,6.40
2022-11-15T01:11:13.954Z,6.40
2022-11-15T01:13:42.668Z,6.70
2022-11-15T01:16:20.378Z,6.40
2022-11-15T01:18:48.899Z,6.40
2022-11-15T01:21:20.820Z,6.40
2022-11-15T01:23:49.414Z,6.50
2022-11-15T01:26:18.176Z,6.50
2022-11-15T01:28:46.520Z,6.40
2022-11-15T01:31:18.228Z,6.30
2022-11-15T01:33:47.492Z,6.30
2022-11-15T01:36:25.226Z,6.40
2022-11-15T01:38:59.621Z,6.40
2022-11-15T01:41:33.900Z,6.30
2022-11-15T01:44:33.154Z,6.40
2022-11-15T01:47:08.947Z,6.40
2022-11-15T01:49:42.520Z,6.30
2022-11-15T01:52:14.892Z,6.30
2022-11-15T01:54:44.572Z,6.30
2022-11-15T01:57:15.071Z,6.50
2022-11-15T01:59:46.919Z,6.10
2022-11-15T02:02:15.684Z,6.20
2022-11-15T02:04:47.310Z,6.30
2022-11-15T02:07:21.981Z,6.40
2022-11-15T02:09:51.666Z,6.40
2022-11-15T02:12:23.944Z,6.60
2022-11-15T02:14:55.670Z,6.50
2022-11-15T02:17:33.092Z,6.40
2022-11-15T02:20:08.506Z,6.80
2022-11-15T02:23:07.034Z,6.70
2022-11-15T02:25:43.691Z,6.90
2022-11-15T02:28:30.643Z,6.80
2022-11-15T02:31:17.095Z,6.40
2022-11-15T02:33:58.647Z,6.90
2022-11-15T02:36:40.286Z,6.70
2022-11-15T02:39:44.282Z,6.30
2022-11-15T02:43:03.176Z,6.40
2022-11-15T02:45:57.478Z,6.50
2022-11-15T02:48:27.465Z,6.40
2022-11-15T02:50:56.051Z,6.70
2022-11-15T02:53:28.515Z,6.80
2022-11-15T02:55:59.128Z,6.60
2022-11-15T02:58:33.479Z,6.70
2022-11-15T03:01:25.177Z,6.90
2022-11-15T03:04:21.486Z,6.80
2022-11-15T03:07:04.724Z,6.40
2022-11-15T03:09:53.707Z,6.40
2022-11-15T03:12:37.113Z,6.40
2022-11-15T03:15:37.021Z,6.40
2022-11-15T03:18:32.063Z,6.70
2022-11-15T03:21:04.114Z,6.30
2022-11-15T03:23:35.248Z,6.70
2022-11-15T03:26:03.980Z,6.30
2022-11-15T03:28:49.775Z,6.70
2022-11-15T03:31:39.514Z,6.60
2022-11-15T03:34:12.881Z,6.70
2022-11-15T03:36:41.432Z,6.90
2022-11-15T03:39:12.521Z,6.40
2022-11-15T03:41:51.829Z,6.60
2022-11-15T03:44:47.812Z,6.70
2022-11-15T03:47:40.368Z,6.50
2022-11-15T03:50:17.987Z,6.70
2022-11-15T03:52:49.524Z,6.40
2022-11-15T03:55:21.135Z,6.70
2022-11-15T03:57:52.996Z,6.50
2022-11-15T04:00:21.468Z,6.60
2022-11-15T04:02:49.896Z,6.40
2022-11-15T04:05:18.416Z,6.60
2022-11-15T04:07:48.055Z,6.70
2022-11-15T04:10:16.753Z,6.60
2022-11-15T04:12:49.083Z,6.70
2022-11-15T04:15:26.204Z,6.40
2022-11-15T04:17:57.317Z,6.70
2022-11-15T04:20:50.467Z,6.60
2022-11-15T04:23:39.913Z,6.50
2022-11-15T04:26:18.565Z,6.40
2022-11-15T04:29:05.278Z,6.40
2022-11-15T04:31:35.091Z,6.50
2022-11-15T04:34:03.460Z,6.40
2022-11-15T04:36:49.961Z,6.30
2022-11-15T04:39:18.345Z,6.40
2022-11-15T04:41:46.945Z,6.40
2022-11-15T04:44:15.356Z,6.30
2022-11-15T04:46:43.808Z,6.40
2022-11-15T04:49:12.334Z,6.40
2022-11-15T04:51:40.899Z,6.30
2022-11-15T04:54:09.291Z,6.30
2022-11-15T04:56:37.690Z,6.40
2022-11-15T04:59:06.129Z,6.40
2022-11-15T05:01:34.511Z,6.40
2022-11-15T05:04:21.320Z,6.40
2022-11-15T05:06:51.897Z,6.30
2022-11-15T05:09:21.931Z,6.40
2022-11-15T05:11:50.716Z,6.40
2022-11-15T05:14:19.165Z,6.50
2022-11-15T05:16:47.777Z,6.50
2022-11-15T05:19:17.352Z,6.40
2022-11-15T05:21:46.153Z,6.50
2022-11-15T05:24:14.670Z,6.40
2022-11-15T05:26:43.254Z,6.40
2022-11-15T05:29:12.937Z,6.50
2022-11-15T05:31:43.886Z,6.40
2022-11-15T05:34:12.364Z,6.40
2022-11-15T05:36:45.219Z,6.30
2022-11-15T05:39:13.957Z,6.20
2022-11-15T05:41:52.783Z,6.10
2022-11-15T05:44:25.121Z,6.30
2022-11-15T05:46:55.897Z,6.10
2022-11-15T05:49:29.310Z,6.30
2022-11-15T05:51:58.769Z,6.50
2022-11-15T05:54:27.726Z,6.30
2022-11-15T05:56:57.592Z,6.10
2022-11-15T05:59:26.965Z,6.00
2022-11-15T06:01:55.341Z,6.10
2022-11-15T06:04:23.761Z,6.30
2022-11-15T06:06:52.257Z,6.30
2022-11-15T06:09:20.641Z,6.00
2022-11-15T06:11:49.680Z,6.10
2022-11-15T06:14:18.210Z,6.00
2022-11-15T06:16:46.687Z,6.50
2022-11-15T06:19:15.028Z,6.10
2022-11-15T06:21:43.589Z,6.20
2022-11-15T06:24:11.951Z,6.00
2022-11-15T06:26:40.360Z,6.00
2022-11-15T06:29:08.890Z,6.10
2022-11-15T06:31:37.321Z,6.10
2022-11-15T06:34:05.650Z,6.20
2022-11-15T06:36:37.701Z,6.10
2022-11-15T06:39:07.028Z,6.20
2022-11-15T06:41:38.763Z,6.10
2022-11-15T06:44:07.125Z,6.00
2022-11-15T06:46:35.464Z,6.10
2022-11-15T06:49:08.331Z,6.00
2022-11-15T06:51:38.164Z,6.00
2022-11-15T06:54:06.884Z,6.00
2022-11-15T06:56:36.214Z,6.30
2022-11-15T06:59:04.692Z,6.10
2022-11-15T07:01:33.273Z,6.10
2022-11-15T07:04:01.702Z,6.00
2022-11-15T07:06:30.086Z,6.00
2022-11-15T07:08:58.523Z,6.10
2022-11-15T07:11:26.920Z,6.10
2022-11-15T07:13:55.254Z,6.20
2022-11-15T07:16:23.690Z,6.10
2022-11-15T07:18:52.030Z,6.00
2022-11-15T07:21:24.786Z,6.10
2022-11-15T07:23:55.861Z,6.00
2022-11-15T07:26:24.220Z,6.40
2022-11-15T07:28:52.729Z,6.10
2022-11-15T07:31:21.159Z,6.00
2022-11-15T07:33:49.518Z,6.10
2022-11-15T07:36:17.864Z,6.10
2022-11-15T07:38:46.383Z,6.10
2022-11-15T07:41:14.781Z,6.00
2022-11-15T07:43:43.200Z,6.00
2022-11-15T07:46:11.782Z,6.10
2022-11-15T07:48:44.871Z,6.00
2022-11-15T07:51:17.757Z,6.00
2022-11-15T07:53:46.578Z,6.00
2022-11-15T07:56:15.521Z,6.00
2022-11-15T07:58:44.131Z,6.00
2022-11-15T08:01:15.107Z,5.90
2022-11-15T08:03:43.546Z,6.10
2022-11-15T08:06:11.950Z,6.10
2022-11-15T08:08:40.286Z,6.10
2022-11-15T08:11:08.624Z,6.00
2022-11-15T08:13:37.412Z,6.00
2022-11-15T08:16:07.222Z,6.10
2022-11-15T08:18:35.645Z,6.00
2022-11-15T08:21:04.222Z,6.00
2022-11-15T08:23:33.829Z,6.00
2022-11-15T08:26:04.505Z,6.10
2022-11-15T08:28:34.048Z,6.00
2022-11-15T08:31:02.791Z,6.10
2022-11-15T08:33:32.305Z,6.00
2022-11-15T08:36:02.358Z,5.80
2022-11-15T08:38:32.387Z,5.90
2022-11-15T08:41:06.330Z,5.80
2022-11-15T08:43:35.575Z,6.10
2022-11-15T08:46:04.075Z,5.80
2022-11-15T08:48:33.173Z,5.60
2022-11-15T08:51:01.640Z,5.60
2022-11-15T08:53:30.037Z,5.80
2022-11-15T08:55:58.489Z,5.80
2022-11-15T08:58:26.870Z,5.70
2022-11-15T09:00:55.284Z,5.70
2022-11-15T09:03:23.764Z,5.70
2022-11-15T09:05:57.571Z,5.80
2022-11-15T09:08:46.615Z,5.60
2022-11-15T09:11:16.319Z,5.80
2022-11-15T09:13:44.790Z,5.50
2022-11-15T09:16:14.469Z,5.30
2022-11-15T09:18:43.206Z,5.70
2022-11-15T09:21:12.492Z,5.50
2022-11-15T09:23:40.939Z,5.30
2022-11-15T09:26:09.566Z,5.80
2022-11-15T09:28:39.941Z,5.70
2022-11-15T09:31:08.540Z,5.80
2022-11-15T09:33:37.224Z,5.80
2022-11-15T09:36:08.770Z,5.70
2022-11-15T09:38:37.548Z,5.70
2022-11-15T09:41:15.008Z,5.90
2022-11-15T09:44:09.164Z,5.70
2022-11-15T09:46:50.837Z,5.70
2022-11-15T09:49:20.540Z,5.30
2022-11-15T09:51:52.762Z,5.50
2022-11-15T09:57:33.285Z,5.30
2022-11-15T10:03:23.194Z,5.50
2022-11-15T10:05:54.691Z,5.20
2022-11-15T10:08:51.155Z,5.30
2022-11-15T10:11:42.239Z,5.30
2022-11-15T10:14:25.727Z,5.50
2022-11-15T10:17:38.630Z,5.60
2022-11-15T10:20:17.430Z,5.40
2022-11-15T10:22:55.995Z,5.50
2022-11-15T10:25:27.709Z,5.60
2022-11-15T10:28:13.777Z,5.50
2022-11-15T10:30:45.593Z,5.40
2022-11-15T10:33:40.480Z,5.50
2022-11-15T10:36:11.777Z,5.10
2022-11-15T10:38:52.347Z,5.20
2022-11-15T10:41:33.501Z,5.20
2022-11-15T10:44:11.177Z,5.10
2022-11-15T10:46:47.216Z,5.10
2022-11-15T10:49:22.268Z,5.10
2022-11-15T10:51:56.200Z,5.20
2022-11-15T10:54:30.399Z,5.10
2022-11-15T10:57:27.410Z,5.10
2022-11-15T11:00:28.556Z,5.20
2022-11-15T11:03:08.873Z,5.00
2022-11-15T11:05:43.200Z,5.00
2022-11-15T11:08:17.764Z,5.00
2022-11-15T11:11:02.116Z,5.00
2022-11-15T11:13:33.199Z,5.00
2022-11-15T11:16:16.814Z,5.00
2022-11-15T11:19:07.096Z,5.00
2022-11-15T11:22:06.374Z,5.00
2022-11-15T11:25:04.799Z,5.00
2022-11-15T11:27:52.653Z,5.30
2022-11-15T11:30:32.670Z,5.20
2022-11-15T11:33:22.715Z,5.20
2022-11-15T11:36:21.028Z,5.00
2022-11-15T11:38:56.206Z,5.00
2022-11-15T11:41:50.278Z,5.30
2022-11-15T11:44:24.492Z,5.30
2022-11-15T11:47:20.933Z,5.40
2022-11-15T11:50:06.204Z,5.50
2022-11-15T11:52:43.561Z,5.30
2022-11-15T11:55:22.051Z,5.40
2022-11-15T11:57:56.521Z,5.40
2022-11-15T12:00:30.917Z,5.40
2022-11-15T12:03:18.042Z,5.30
2022-11-15T12:05:59.043Z,5.40
2022-11-15T12:08:50.421Z,5.00
2022-11-15T12:11:30.805Z,5.40
2022-11-15T12:14:03.341Z,5.20
2022-11-15T12:16:34.265Z,5.10
2022-11-15T12:19:06.696Z,5.20
2022-11-15T12:21:54.411Z,5.10
2022-11-15T12:24:27.670Z,5.20
2022-11-15T12:27:26.864Z,5.10
2022-11-15T12:30:04.507Z,5.10
2022-11-15T12:32:40.988Z,5.10
2022-11-15T12:35:37.662Z,5.10
2022-11-15T12:38:07.002Z,5.10
2022-11-15T12:41:22.956Z,5.20
2022-11-15T12:43:52.523Z,5.10
2022-11-15T12:46:33.111Z,5.10
2022-11-15T12:49:21.404Z,5.10
2022-11-15T12:51:49.797Z,5.20
2022-11-15T12:54:28.319Z,5.20
2022-11-15T12:57:05.882Z,5.20
2022-11-15T13:00:00.551Z,5.00
2022-11-15T13:02:33.342Z,5.10
2022-11-15T13:05:24.195Z,5.20
2022-11-15T13:07:52.639Z,5.20
2022-11-15T13:10:32.083Z,5.10
2022-11-15T13:13:02.106Z,5.00
2022-11-15T13:15:41.286Z,5.00
2022-11-15T13:18:29.612Z,5.20
2022-11-15T13:21:02.366Z,5.20
2022-11-15T13:23:31.706Z,5.00
2022-11-15T13:26:06.200Z,5.00
2022-11-15T13:28:43.564Z,5.30
2022-11-15T13:31:39.465Z,5.30
2022-11-15T13:37:22.350Z,5.10
2022-11-15T13:39:51.845Z,4.90
2022-11-15T13:42:22.116Z,5.20
2022-11-15T13:45:03.161Z,5.00
2022-11-15T13:47:33.435Z,5.20
2022-11-15T13:50:09.674Z,5.10
2022-11-15T13:52:43.255Z,5.20
2022-11-15T13:55:25.504Z,5.00
2022-11-15T13:57:59.918Z,5.20
2022-11-15T14:00:36.523Z,5.20
2022-11-15T14:03:35.970Z,5.10
2022-11-15T14:06:16.874Z,5.40
2022-11-15T14:09:09.160Z,5.40
2022-11-15T14:11:38.138Z,5.40
2022-11-15T14:14:15.590Z,5.20
2022-11-15T14:16:55.681Z,5.20
2022-11-15T14:19:24.061Z,5.30
2022-11-15T14:22:16.433Z,5.10
2022-11-15T14:24:47.795Z,5.20
2022-11-15T14:27:28.968Z,4.90
2022-11-15T14:29:57.603Z,5.20
2022-11-15T14:32:27.628Z,5.20
2022-11-15T14:35:04.493Z,5.00
2022-11-15T14:37:36.694Z,5.10
2022-11-15T14:40:07.376Z,5.20
2022-11-15T14:42:35.778Z,5.40
2022-11-15T14:45:04.233Z,5.00
2022-11-15T14:47:32.838Z,5.30
2022-11-15T14:50:01.243Z,5.20
2022-11-15T14:52:33.022Z,5.20
2022-11-15T14:55:04.099Z,5.20
2022-11-15T14:57:33.100Z,5.10
2022-11-15T15:00:12.152Z,5.20
2022-11-15T15:02:41.043Z,5.00
2022-11-15T15:05:21.650Z,5.40
2022-11-15T15:07:50.952Z,5.20
2022-11-15T15:13:19.733Z,5.00
2022-11-15T15:15:49.357Z,5.20
2022-11-15T15:18:17.866Z,5.20
2022-11-15T15:20:49.634Z,5.20
2022-11-15T15:23:19.965Z,5.10
2022-11-15T15:25:50.756Z,5.10
2022-11-15T15:28:19.157Z,4.90
2022-11-15T15:30:47.554Z,5.10
2022-11-15T15:33:16.054Z,5.20
2022-11-15T15:35:44.777Z,5.10
2022-11-15T15:38:17.211Z,5.30
2022-11-15T15:40:45.935Z,5.40
2022-11-15T15:43:14.393Z,5.50
2022-11-15T15:45:44.273Z,5.40
2022-11-15T15:48:17.422Z,5.40
2022-11-15T15:50:46.921Z,5.50
2022-11-15T15:53:15.767Z,5.50
2022-11-15T15:55:44.277Z,5.30
2022-11-15T15:58:12.780Z,5.50
2022-11-15T16:00:41.330Z,5.30
2022-11-15T16:03:09.811Z,5.40
2022-11-15T16:05:38.327Z,5.40
2022-11-15T16:08:06.837Z,5.50
2022-11-15T16:10:36.505Z,5.30
2022-11-15T16:13:05.748Z,5.70
2022-11-15T16:15:34.752Z,5.80
2022-11-15T16:18:04.248Z,5.80
2022-11-15T16:20:39.144Z,5.60
2022-11-15T16:23:12.308Z,5.70
2022-11-15T16:25:53.075Z,5.70
2022-11-15T16:28:27.688Z,6.00
2022-11-15T16:31:10.087Z,6.00
2022-11-15T16:33:38.795Z,6.10
2022-11-15T16:36:16.584Z,6.40
2022-11-15T16:38:44.934Z,6.70
2022-11-15T16:41:13.285Z,6.80
2022-11-15T16:43:41.757Z,7.30
2022-11-15T16:46:25.216Z,7.00
2022-11-15T16:48:57.695Z,7.10
2022-11-15T16:51:26.423Z,7.60
2022-11-15T16:53:54.790Z,7.40
2022-11-15T16:56:30.499Z,7.80
2022-11-15T16:59:01.117Z,7.70
2022-11-15T17:01:36.225Z,7.60
2022-11-15T17:04:13.436Z,7.10
2022-11-15T17:06:43.489Z,7.10
2022-11-15T17:09:26.554Z,7.00
2022-11-15T17:11:55.252Z,7.00
2022-11-15T17:14:23.912Z,7.00
2022-11-15T17:16:52.308Z,7.10
2022-11-15T17:19:22.264Z,7.10
2022-11-15T17:21:50.654Z,7.10
2022-11-15T17:24:21.582Z,7.10
2022-11-15T17:26:49.971Z,7.00
2022-11-15T17:29:19.349Z,7.30
2022-11-15T17:31:47.716Z,7.00
2022-11-15T17:34:16.328Z,7.10
2022-11-15T17:36:44.981Z,7.40
2022-11-15T17:39:13.389Z,7.50
2022-11-15T17:41:41.789Z,7.10
2022-11-15T17:44:10.142Z,7.10
2022-11-15T17:46:38.469Z,7.20
2022-11-15T17:49:06.916Z,7.70
2022-11-15T17:51:35.604Z,7.60
2022-11-15T17:54:04.070Z,7.40
2022-11-15T17:56:32.620Z,7.40
2022-11-15T17:59:02.068Z,7.50
2022-11-15T18:01:35.884Z,7.60
2022-11-15T18:04:08.845Z,7.50
2022-11-15T18:06:37.609Z,8.00
2022-11-15T18:09:08.058Z,7.70
2022-11-15T18:11:42.202Z,7.80
2022-11-15T18:14:14.381Z,8.00
2022-11-15T18:16:43.229Z,8.10
2022-11-15T18:19:14.880Z,7.90
2022-11-15T18:21:58.275Z,8.40
2022-11-15T18:24:34.362Z,7.80
2022-11-15T18:27:05.121Z,7.80
2022-11-15T18:29:35.331Z,8.10
2022-11-15T18:32:07.234Z,8.00
2022-11-15T18:34:35.597Z,8.30
2022-11-15T18:37:04.249Z,8.10
2022-11-15T18:39:33.436Z,8.30
2022-11-15T18:42:02.211Z,8.40
2022-11-15T18:44:31.619Z,8.30
2022-11-15T18:47:00.043Z,8.40
2022-11-15T18:49:28.475Z,8.20
2022-11-15T18:51:57.795Z,8.10
2022-11-15T18:54:31.038Z,8.40
2022-11-15T18:57:00.161Z,8.50
2022-11-15T18:59:28.645Z,8.40
2022-11-15T19:01:57.736Z,8.40
2022-11-15T19:04:26.346Z,8.40
2022-11-15T19:06:54.972Z,8.40
2022-11-15T19:09:28.021Z,8.40
2022-11-15T19:11:57.645Z,8.40
2022-11-15T19:14:28.514Z,8.30
2022-11-15T19:16:56.964Z,8.40
2022-11-15T19:19:29.076Z,8.20
2022-11-15T19:22:00.645Z,8.30
2022-11-15T19:24:30.691Z,8.30
2022-11-15T19:26:59.464Z,8.70
2022-11-15T19:29:27.891Z,8.70
2022-11-15T19:31:56.313Z,8.80
2022-11-15T19:34:24.686Z,9.00
2022-11-15T19:36:53.110Z,8.80
2022-11-15T19:39:21.579Z,9.00
2022-11-15T19:41:50.846Z,9.10
2022-11-15T19:44:20.091Z,8.60
2022-11-15T19:46:48.735Z,8.70
2022-11-15T19:49:17.242Z,8.70
2022-11-15T19:51:47.972Z,8.80
2022-11-15T19:54:17.995Z,8.70
2022-11-15T19:56:46.748Z,8.70
2022-11-15T19:59:15.289Z,8.80
2022-11-15T20:01:43.893Z,8.80
2022-11-15T20:04:12.365Z,9.00
2022-11-15T20:06:43.683Z,8.80
2022-11-15T20:09:17.141Z,9.00
2022-11-15T20:11:45.804Z,8.70
2022-11-15T20:14:14.724Z,8.80
2022-11-15T20:16:43.720Z,8.80
2022-11-15T20:19:13.170Z,8.90
2022-11-15T20:21:41.697Z,9.10
2022-11-15T20:24:11.014Z,8.90
2022-11-15T20:26:40.109Z,9.10
2022-11-15T20:29:10.797Z,8.80
2022-11-15T20:31:40.506Z,8.70
2022-11-15T20:34:10.090Z,8.70
2022-11-15T20:36:39.683Z,9.00
2022-11-15T20:39:08.085Z,8.80
2022-11-15T20:41:36.988Z,8.80
2022-11-15T20:44:05.480Z,8.80
2022-11-15T20:46:35.223Z,9.00
2022-11-15T20:49:03.557Z,9.00
2022-11-15T20:51:32.336Z,9.10
2022-11-15T20:54:00.856Z,8.90
2022-11-15T20:56:30.414Z,9.00
2022-11-15T20:58:59.936Z,9.00
2022-11-15T21:01:28.461Z,9.20
2022-11-15T21:03:58.285Z,9.00
2022-11-15T21:06:28.955Z,9.00
2022-11-15T21:09:17.220Z,9.10
2022-11-15T21:12:04.156Z,9.00
2022-11-15T21:14:32.901Z,9.10
2022-11-15T21:17:01.635Z,9.00
2022-11-15T21:19:35.551Z,9.00
2022-11-15T21:22:10.208Z,9.10
2022-11-15T21:24:38.675Z,9.20
2022-11-15T21:27:08.793Z,9.20
2022-11-15T21:29:41.636Z,9.50
2022-11-15T21:32:11.029Z,9.20
2022-11-15T21:34:40.704Z,9.20
2022-11-15T21:37:11.917Z,9.20
2022-11-15T21:39:40.727Z,9.10
2022-11-15T21:42:10.258Z,9.20
2022-11-15T21:44:38.794Z,9.10
2022-11-15T21:47:08.686Z,9.10
2022-11-15T21:49:37.123Z,9.20
2022-11-15T21:52:06.200Z,9.20
2022-11-15T21:54:34.608Z,9.10
2022-11-15T21:57:02.968Z,9.20
2022-11-15T21:59:31.511Z,9.10
2022-11-15T22:02:18.221Z,9.10
2022-11-15T22:04:46.612Z,9.50
2022-11-15T22:07:15.030Z,9.10
2022-11-15T22:09:43.590Z,9.00
2022-11-15T22:12:12.094Z,9.10
2022-11-15T22:14:40.527Z,9.00
2022-11-15T22:17:08.909Z,9.10
2022-11-15T22:19:47.530Z,9.00
2022-11-15T22:22:20.879Z,9.10
2022-11-15T22:24:49.324Z,8.90
2022-11-15T22:27:17.711Z,8.90
2022-11-15T22:29:46.058Z,9.00
2022-11-15T22:32:14.427Z,9.20
2022-11-15T22:34:43.237Z,9.00
2022-11-15T22:37:20.536Z,9.10
2022-11-15T22:39:49.938Z,8.90
2022-11-15T22:42:23.223Z,8.80
2022-11-15T22:44:52.343Z,9.10
2022-11-15T22:47:21.903Z,8.60
2022-11-15T22:49:50.447Z,8.80
2022-11-15T22:52:20.353Z,8.80
2022-11-15T22:54:48.844Z,8.80
2022-11-15T22:57:17.312Z,8.70
2022-11-15T22:59:45.825Z,8.70
2022-11-15T23:02:14.248Z,8.70
2022-11-15T23:04:42.760Z,8.80
2022-11-15T23:07:11.271Z,8.70
2022-11-15T23:09:39.730Z,8.70
2022-11-15T23:12:27.905Z,8.60
2022-11-15T23:14:56.329Z,8.60
2022-11-15T23:17:24.773Z,8.50
2022-11-15T23:19:53.360Z,8.70
2022-11-15T23:22:39.845Z,8.80
2022-11-15T23:25:08.608Z,8.70
2022-11-15T23:27:37.122Z,8.70
2022-11-15T23:30:24.587Z,8.70
2022-11-15T23:33:11.344Z,8.60
2022-11-15T23:35:39.726Z,8.40
2022-11-15T23:38:08.101Z,8.50
2022-11-15T23:40:36.589Z,8.30
2022-11-15T23:43:04.994Z,8.20
2022-11-15T23:45:33.391Z,8.30
2022-11-15T23:48:01.892Z,8.40
2022-11-15T23:50:30.413Z,8.40
2022-11-15T23:53:00.172Z,8.30
2022-11-15T23:55:28.585Z,8.00
2022-11-15T23:57:57.349Z,8.00
